createdAt,value
2022-11-24T00:00:06.970Z,99499.81
2022-11-24T00:05:09.642Z,99504.00
2022-11-24T00:10:13.581Z,99503.88
2022-11-24T00:15:16.316Z,99503.81
2022-11-24T00:20:18.888Z,99513.94
2022-11-24T00:25:22.839Z,99522.19
2022-11-24T00:30:25.485Z,99523.81
2022-11-24T00:35:28.120Z,99532.59
2022-11-24T00:40:35.010Z,99539.13
2022-11-24T00:45:37.911Z,99538.03
2022-11-24T00:50:40.847Z,99541.84
2022-11-24T00:55:44.804Z,99545.66
2022-11-24T01:00:47.945Z,99558.66
2022-11-24T01:05:50.571Z,99567.31
2022-11-24T01:10:54.519Z,99574.47
2022-11-24T01:15:57.180Z,99577.47
2022-11-24T01:21:00.002Z,99578.13
2022-11-24T01:26:06.638Z,99582.81
2022-11-24T01:31:09.959Z,99581.16
2022-11-24T01:36:12.869Z,99583.13
2022-11-24T01:41:18.865Z,99590.44
2022-11-24T01:46:25.139Z,99592.22
2022-11-24T01:51:32.579Z,99594.69
2022-11-24T01:56:40.605Z,99603.38
2022-11-24T02:01:43.295Z,99610.16
2022-11-24T02:06:47.765Z,99608.53
2022-11-24T02:11:54.747Z,99618.31
2022-11-24T02:16:57.408Z,99614.50
2022-11-24T02:22:00.100Z,99619.06
2022-11-24T02:27:04.812Z,99621.59
2022-11-24T02:32:09.822Z,99633.34
2022-11-24T02:37:12.466Z,99633.41
2022-11-24T02:42:16.551Z,99642.22
2022-11-24T02:47:19.169Z,99634.16
2022-11-24T02:52:21.740Z,99629.53
2022-11-24T02:57:25.913Z,99642.38
2022-11-24T03:02:30.450Z,99634.00
2022-11-24T03:07:33.015Z,99644.06
2022-11-24T03:12:37.041Z,99638.84
2022-11-24T03:17:39.716Z,99638.88
2022-11-24T03:22:42.586Z,99631.97
2022-11-24T03:27:46.956Z,99635.75
2022-11-24T03:32:51.865Z,99644.63
2022-11-24T03:37:54.496Z,99656.44
2022-11-24T03:42:58.453Z,99656.19
2022-11-24T03:48:01.095Z,99670.81
2022-11-24T03:53:03.846Z,99673.69
2022-11-24T03:58:07.746Z,99677.72
2022-11-24T04:03:10.455Z,99683.38
2022-11-24T04:08:13.192Z,99682.47
2022-11-24T04:13:18.683Z,99688.94
2022-11-24T04:18:21.939Z,99687.31
2022-11-24T04:23:24.493Z,99704.06
2022-11-24T04:28:28.414Z,99709.75
2022-11-24T04:33:31.188Z,99721.28
2022-11-24T04:39:23.203Z,99719.56
2022-11-24T04:43:57.619Z,99721.69
2022-11-24T04:49:00.193Z,99725.78
2022-11-24T04:54:03.961Z,99735.97
2022-11-24T04:59:08.574Z,99737.09
2022-11-24T05:04:12.301Z,99734.25
2022-11-24T05:09:16.748Z,99743.44
2022-11-24T05:14:20.671Z,99738.56
2022-11-24T05:19:25.354Z,99748.53
2022-11-24T05:24:29.876Z,99762.13
2022-11-24T05:29:33.764Z,99771.66
2022-11-24T05:34:36.526Z,99777.09
2022-11-24T05:39:39.327Z,99785.22
2022-11-24T05:44:43.196Z,99780.59
2022-11-24T05:49:45.898Z,99772.38
2022-11-24T05:54:48.502Z,99780.56
2022-11-24T05:59:52.405Z,99784.88
2022-11-24T06:04:55.244Z,99778.38
2022-11-24T06:09:57.832Z,99791.47
2022-11-24T06:15:01.737Z,99793.19
2022-11-24T06:20:05.167Z,99795.75
2022-11-24T06:25:09.472Z,99793.41
2022-11-24T06:30:15.795Z,99801.19
2022-11-24T06:35:18.646Z,99808.31
2022-11-24T06:40:21.222Z,99811.19
2022-11-24T06:45:25.507Z,99825.75
2022-11-24T06:50:33.300Z,99827.06
2022-11-24T06:55:36.302Z,99825.63
2022-11-24T07:00:40.441Z,99825.50
2022-11-24T07:05:43.254Z,99820.34
2022-11-24T07:10:45.980Z,99822.47
2022-11-24T07:15:49.910Z,99829.75
2022-11-24T07:20:52.502Z,99827.97
2022-11-24T07:25:55.269Z,99835.72
2022-11-24T07:31:00.044Z,99839.03
2022-11-24T07:36:03.832Z,99845.09
2022-11-24T07:41:08.941Z,99853.22
2022-11-24T07:46:15.118Z,99859.47
2022-11-24T07:51:18.026Z,99860.19
2022-11-24T07:56:20.608Z,99868.25
2022-11-24T08:01:24.832Z,99858.88
2022-11-24T08:06:38.743Z,99868.69
2022-11-24T08:11:43.381Z,99880.06
2022-11-24T08:16:47.422Z,99890.41
2022-11-24T08:21:50.214Z,99890.16
2022-11-24T08:26:52.777Z,99889.59
2022-11-24T08:31:58.236Z,99896.88
2022-11-24T08:37:00.951Z,99900.53
2022-11-24T08:42:03.570Z,99911.91
2022-11-24T08:47:07.512Z,99917.41
2022-11-24T08:52:10.318Z,99904.31
2022-11-24T08:57:20.221Z,99906.88
2022-11-24T09:02:25.692Z,99914.44
2022-11-24T09:07:28.338Z,99914.50
2022-11-24T09:12:30.980Z,99906.66
2022-11-24T09:17:35.248Z,99922.28
2022-11-24T09:22:38.203Z,99930.69
2022-11-24T09:27:43.788Z,99930.50
2022-11-24T09:32:47.721Z,99944.34
2022-11-24T09:37:51.215Z,99942.38
2022-11-24T09:43:02.052Z,99944.16
2022-11-24T09:48:13.507Z,99937.06
2022-11-24T09:53:20.445Z,99941.50
2022-11-24T09:58:36.353Z,99947.88
2022-11-24T10:03:44.035Z,99950.94
2022-11-24T10:09:07.713Z,99935.16
2022-11-24T10:14:42.819Z,99942.97
2022-11-24T10:19:50.936Z,99952.09
2022-11-24T10:25:10.517Z,99966.47
2022-11-24T10:30:18.656Z,99964.22
2022-11-24T10:35:27.338Z,99967.69
2022-11-24T10:46:01.841Z,99971.38
2022-11-24T10:51:29.525Z,99965.53
2022-11-24T10:56:40.170Z,99968.81
2022-11-24T11:01:44.908Z,99975.81
2022-11-24T11:06:49.007Z,99972.16
2022-11-24T11:11:54.771Z,99971.81
2022-11-24T11:16:58.817Z,99977.47
2022-11-24T11:22:07.264Z,99970.81
2022-11-24T11:27:21.869Z,99978.47
2022-11-24T11:37:50.678Z,99981.53
2022-11-24T11:43:04.535Z,99982.19
2022-11-24T11:48:23.768Z,99990.88
2022-11-24T11:53:33.912Z,99984.50
2022-11-24T11:58:56.700Z,99978.63
2022-11-24T12:04:13.467Z,99986.91
2022-11-24T12:09:33.930Z,100007.06
2022-11-24T12:14:48.841Z,100015.31
2022-11-24T12:20:04.324Z,100016.88
2022-11-24T12:25:23.506Z,100025.97
2022-11-24T12:30:29.603Z,100021.38
2022-11-24T12:35:39.673Z,100031.19
2022-11-24T12:41:18.023Z,100037.25
2022-11-24T12:46:26.782Z,100043.91
2022-11-24T12:51:33.039Z,100040.19
2022-11-24T12:56:43.487Z,100053.84
2022-11-24T13:01:54.436Z,100045.16
2022-11-24T13:07:02.214Z,100057.53
2022-11-24T13:12:14.247Z,100046.53
2022-11-24T13:17:36.330Z,100056.38
2022-11-24T13:22:54.774Z,100060.97
2022-11-24T13:27:59.700Z,100064.03
2022-11-24T13:33:21.647Z,100062.59
2022-11-24T13:38:51.980Z,100061.88
2022-11-24T13:44:24.429Z,100074.72
2022-11-24T13:49:39.031Z,100077.50
2022-11-24T13:54:42.207Z,100075.50
2022-11-24T13:59:46.192Z,100077.00
2022-11-24T14:04:49.104Z,100082.16
2022-11-24T14:09:53.035Z,100081.97
2022-11-24T14:15:21.879Z,100088.28
2022-11-24T14:20:26.418Z,100091.56
2022-11-24T14:25:30.850Z,100102.00
2022-11-24T14:30:34.828Z,100113.31
2022-11-24T14:35:45.264Z,100116.50
2022-11-24T14:40:51.668Z,100120.94
2022-11-24T14:45:58.586Z,100131.75
2022-11-24T14:51:13.819Z,100135.59
2022-11-24T14:56:27.939Z,100147.09
2022-11-24T15:01:36.075Z,100149.28
2022-11-24T15:06:39.250Z,100150.22
2022-11-24T15:11:41.969Z,100158.75
2022-11-24T15:16:46.111Z,100173.75
2022-11-24T15:21:48.725Z,100179.16
2022-11-24T15:26:51.334Z,100177.59
2022-11-24T15:31:55.309Z,100188.34
2022-11-24T15:36:57.876Z,100190.34
2022-11-24T15:42:00.620Z,100178.13
2022-11-24T15:47:06.600Z,100186.91
2022-11-24T15:52:09.229Z,100194.97
2022-11-24T15:57:11.907Z,100199.44
2022-11-24T16:02:15.913Z,100196.69
2022-11-24T16:07:21.047Z,100205.22
2022-11-24T16:12:24.776Z,100213.09
2022-11-24T16:17:28.706Z,100217.56
2022-11-24T16:22:31.244Z,100222.53
2022-11-24T16:27:33.829Z,100216.50
2022-11-24T16:32:37.719Z,100217.69
2022-11-24T16:37:40.287Z,100221.41
2022-11-24T16:42:42.861Z,100223.88
2022-11-24T16:47:46.842Z,100221.75
2022-11-24T16:52:51.527Z,100226.06
2022-11-24T16:57:54.318Z,100233.66
2022-11-24T17:02:58.225Z,100239.94
2022-11-24T17:08:05.707Z,100235.88
2022-11-24T17:13:08.555Z,100238.09
2022-11-24T17:18:24.436Z,100240.47
2022-11-24T17:23:28.082Z,100239.16
2022-11-24T17:28:30.839Z,100243.75
2022-11-24T17:33:36.545Z,100246.84
2022-11-24T17:38:39.090Z,100251.09
2022-11-24T17:43:41.954Z,100252.41
2022-11-24T17:48:46.712Z,100246.69
2022-11-24T17:53:50.988Z,100256.63
2022-11-24T17:58:55.110Z,100263.03
2022-11-24T18:03:59.244Z,100262.28
2022-11-24T18:09:01.793Z,100278.44
2022-11-24T18:14:05.233Z,100288.13
2022-11-24T18:19:11.002Z,100288.19
2022-11-24T18:24:17.488Z,100302.44
2022-11-24T18:29:23.663Z,100302.84
2022-11-24T18:34:27.525Z,100307.16
2022-11-24T18:39:30.507Z,100310.88
2022-11-24T18:44:33.386Z,100309.13
2022-11-24T18:49:37.651Z,100305.50
2022-11-24T18:54:40.301Z,100303.84
2022-11-24T18:59:42.824Z,100316.03
2022-11-24T19:04:46.703Z,100308.81
2022-11-24T19:09:49.304Z,100313.47
2022-11-24T19:14:51.930Z,100303.81
2022-11-24T19:19:55.902Z,100310.31
2022-11-24T19:24:58.445Z,100321.31
2022-11-24T19:30:00.972Z,100325.94
2022-11-24T19:35:05.577Z,100330.31
2022-11-24T19:40:08.841Z,100335.44
2022-11-24T19:45:12.161Z,100353.69
2022-11-24T19:50:16.218Z,100358.22
2022-11-24T19:55:18.795Z,100357.81
2022-11-24T20:00:21.865Z,100370.25
2022-11-24T20:05:25.757Z,100377.63
2022-11-24T20:10:28.415Z,100380.09
2022-11-24T20:15:33.360Z,100376.28
2022-11-24T20:20:37.258Z,100377.56
2022-11-24T20:25:39.834Z,100387.75
2022-11-24T20:30:42.510Z,100379.63
2022-11-24T20:35:46.499Z,100383.41
2022-11-24T20:40:49.076Z,100384.69
2022-11-24T20:45:51.692Z,100391.63
2022-11-24T20:50:55.731Z,100392.00
2022-11-24T20:56:05.859Z,100387.81
2022-11-24T21:01:11.517Z,100391.06
2022-11-24T21:06:15.847Z,100395.63
2022-11-24T21:11:20.901Z,100387.03
2022-11-24T21:16:26.081Z,100400.28
2022-11-24T21:21:34.009Z,100395.31
2022-11-24T21:26:37.880Z,100398.53
2022-11-24T21:31:40.845Z,100401.41
2022-11-24T21:36:45.480Z,100398.03
2022-11-24T21:41:48.193Z,100405.84
2022-11-24T21:46:55.728Z,100408.41
2022-11-24T21:52:00.069Z,100410.88
2022-11-24T21:57:02.611Z,100408.28
2022-11-24T22:02:08.909Z,100413.56
2022-11-24T22:07:16.838Z,100408.81
2022-11-24T22:12:19.493Z,100417.44
2022-11-24T22:17:22.134Z,100413.91
2022-11-24T22:22:26.282Z,100414.72
2022-11-24T22:27:28.839Z,100420.38
2022-11-24T22:32:31.425Z,100420.50
2022-11-24T22:37:37.004Z,100421.84
2022-11-24T22:42:39.655Z,100424.97
2022-11-24T22:47:42.193Z,100436.81
2022-11-24T22:52:50.918Z,100438.78
2022-11-24T22:57:56.952Z,100438.06
2022-11-24T23:02:59.833Z,100431.97
2022-11-24T23:08:03.799Z,100430.88
2022-11-24T23:13:09.345Z,100437.06
2022-11-24T23:18:11.953Z,100440.28
2022-11-24T23:23:15.818Z,100442.94
2022-11-24T23:28:18.404Z,100444.38
2022-11-24T23:33:20.973Z,100451.09
2022-11-24T23:38:30.053Z,100444.16
2022-11-24T23:43:32.712Z,100441.72
2022-11-24T23:48:37.572Z,100438.50
2022-11-24T23:53:42.316Z,100441.38
2022-11-24T23:58:45.410Z,100431.59
